sensor_id;sensor_type;location;lat;lon;timestamp;temperature;humidity
15357;DHT22;7778;48.792;9.260;2022-07-09T00:02:23;14.70;99.90
15357;DHT22;7778;48.792;9.260;2022-07-09T00:05:08;14.70;99.90
15357;DHT22;7778;48.792;9.260;2022-07-09T00:07:56;14.70;99.90
15357;DHT22;7778;48.792;9.260;2022-07-09T00:10:43;14.70;99.90
15357;DHT22;7778;48.792;9.260;2022-07-09T00:13:29;14.70;99.90
15357;DHT22;7778;48.792;9.260;2022-07-09T00:16:14;14.70;99.90
15357;DHT22;7778;48.792;9.260;2022-07-09T00:19:00;14.60;99.90
15357;DHT22;7778;48.792;9.260;2022-07-09T00:21:46;14.30;99.90
15357;DHT22;7778;48.792;9.260;2022-07-09T00:24:31;14.30;99.90
15357;DHT22;7778;48.792;9.260;2022-07-09T00:27:21;14.40;99.90
15357;DHT22;7778;48.792;9.260;2022-07-09T00:30:08;14.50;99.90
15357;DHT22;7778;48.792;9.260;2022-07-09T00:32:54;14.40;99.90
15357;DHT22;7778;48.792;9.260;2022-07-09T00:35:40;14.50;99.90
15357;DHT22;7778;48.792;9.260;2022-07-09T00:38:26;14.40;99.90
15357;DHT22;7778;48.792;9.260;2022-07-09T00:41:12;14.40;99.90
15357;DHT22;7778;48.792;9.260;2022-07-09T00:43:59;14.50;99.90
15357;DHT22;7778;48.792;9.260;2022-07-09T00:46:45;14.60;99.90
15357;DHT22;7778;48.792;9.260;2022-07-09T00:49:31;14.60;99.90
15357;DHT22;7778;48.792;9.260;2022-07-09T00:52:20;14.50;99.90
15357;DHT22;7778;48.792;9.260;2022-07-09T00:55:06;14.40;99.90
15357;DHT22;7778;48.792;9.260;2022-07-09T00:57:53;14.30;99.90
15357;DHT22;7778;48.792;9.260;2022-07-09T01:00:40;14.20;99.90
15357;DHT22;7778;48.792;9.260;2022-07-09T01:03:26;14.10;99.90
15357;DHT22;7778;48.792;9.260;2022-07-09T01:06:12;14.00;99.90
15357;DHT22;7778;48.792;9.260;2022-07-09T01:08:59;13.90;99.90
15357;DHT22;7778;48.792;9.260;2022-07-09T01:11:46;13.80;99.90
15357;DHT22;7778;48.792;9.260;2022-07-09T01:14:32;13.80;99.90
15357;DHT22;7778;48.792;9.260;2022-07-09T01:17:19;13.80;99.90
15357;DHT22;7778;48.792;9.260;2022-07-09T01:20:06;13.70;99.90
15357;DHT22;7778;48.792;9.260;2022-07-09T01:22:54;13.70;99.90
15357;DHT22;7778;48.792;9.260;2022-07-09T01:25:41;13.70;99.90
15357;DHT22;7778;48.792;9.260;2022-07-09T01:28:28;13.70;99.90
15357;DHT22;7778;48.792;9.260;2022-07-09T01:31:14;13.60;99.90
15357;DHT22;7778;48.792;9.260;2022-07-09T01:34:00;13.80;99.90
15357;DHT22;7778;48.792;9.260;2022-07-09T01:36:46;13.50;99.90
15357;DHT22;7778;48.792;9.260;2022-07-09T01:39:33;13.60;99.90
15357;DHT22;7778;48.792;9.260;2022-07-09T01:42:20;13.50;99.90
15357;DHT22;7778;48.792;9.260;2022-07-09T01:45:06;13.60;99.90
15357;DHT22;7778;48.792;9.260;2022-07-09T01:47:52;13.60;99.90
15357;DHT22;7778;48.792;9.260;2022-07-09T01:50:38;13.70;99.90
15357;DHT22;7778;48.792;9.260;2022-07-09T01:53:24;13.70;99.90
15357;DHT22;7778;48.792;9.260;2022-07-09T01:56:11;13.60;99.90
15357;DHT22;7778;48.792;9.260;2022-07-09T01:58:57;13.80;99.90
15357;DHT22;7778;48.792;9.260;2022-07-09T02:01:42;13.50;99.90
15357;DHT22;7778;48.792;9.260;2022-07-09T02:04:28;13.50;99.90
15357;DHT22;7778;48.792;9.260;2022-07-09T02:07:14;13.40;99.90
15357;DHT22;7778;48.792;9.260;2022-07-09T02:10:00;13.40;99.90
15357;DHT22;7778;48.792;9.260;2022-07-09T02:12:47;13.40;99.90
15357;DHT22;7778;48.792;9.260;2022-07-09T02:15:33;13.30;99.90
15357;DHT22;7778;48.792;9.260;2022-07-09T02:18:19;13.30;99.90
15357;DHT22;7778;48.792;9.260;2022-07-09T02:21:05;13.20;99.90
15357;DHT22;7778;48.792;9.260;2022-07-09T02:23:51;13.10;99.90
15357;DHT22;7778;48.792;9.260;2022-07-09T02:26:43;13.10;99.90
15357;DHT22;7778;48.792;9.260;2022-07-09T02:29:29;13.10;99.90
15357;DHT22;7778;48.792;9.260;2022-07-09T02:32:15;13.10;99.90
15357;DHT22;7778;48.792;9.260;2022-07-09T02:35:01;13.10;99.90
15357;DHT22;7778;48.792;9.260;2022-07-09T02:37:46;13.30;99.90
15357;DHT22;7778;48.792;9.260;2022-07-09T02:40:32;13.10;99.90
15357;DHT22;7778;48.792;9.260;2022-07-09T02:43:18;13.00;99.90
15357;DHT22;7778;48.792;9.260;2022-07-09T02:46:05;13.10;99.90
15357;DHT22;7778;48.792;9.260;2022-07-09T02:48:51;13.10;99.90
15357;DHT22;7778;48.792;9.260;2022-07-09T02:51:36;13.20;99.90
15357;DHT22;7778;48.792;9.260;2022-07-09T02:54:22;13.20;99.90
15357;DHT22;7778;48.792;9.260;2022-07-09T02:57:08;13.20;99.90
15357;DHT22;7778;48.792;9.260;2022-07-09T02:59:53;13.10;99.90
15357;DHT22;7778;48.792;9.260;2022-07-09T03:02:40;13.00;99.90
15357;DHT22;7778;48.792;9.260;2022-07-09T03:05:27;13.00;99.90
15357;DHT22;7778;48.792;9.260;2022-07-09T03:08:12;13.00;99.90
15357;DHT22;7778;48.792;9.260;2022-07-09T03:10:59;12.90;99.90
15357;DHT22;7778;48.792;9.260;2022-07-09T03:13:45;12.90;99.90
15357;DHT22;7778;48.792;9.260;2022-07-09T03:16:30;12.90;99.90
15357;DHT22;7778;48.792;9.260;2022-07-09T03:19:17;12.90;99.90
15357;DHT22;7778;48.792;9.260;2022-07-09T03:22:04;12.90;99.90
15357;DHT22;7778;48.792;9.260;2022-07-09T03:24:49;12.90;99.90
15357;DHT22;7778;48.792;9.260;2022-07-09T03:27:36;12.90;99.90
15357;DHT22;7778;48.792;9.260;2022-07-09T03:30:22;12.90;99.90
15357;DHT22;7778;48.792;9.260;2022-07-09T03:33:08;12.90;99.90
15357;DHT22;7778;48.792;9.260;2022-07-09T03:35:55;12.90;99.90
15357;DHT22;7778;48.792;9.260;2022-07-09T03:38:41;12.80;99.90
15357;DHT22;7778;48.792;9.260;2022-07-09T03:41:26;12.70;99.90
15357;DHT22;7778;48.792;9.260;2022-07-09T03:44:12;12.70;99.90
15357;DHT22;7778;48.792;9.260;2022-07-09T03:46:58;12.90;99.90
15357;DHT22;7778;48.792;9.260;2022-07-09T03:49:44;12.70;99.90
15357;DHT22;7778;48.792;9.260;2022-07-09T03:52:31;12.80;99.90
15357;DHT22;7778;48.792;9.260;2022-07-09T03:55:17;12.70;99.90
15357;DHT22;7778;48.792;9.260;2022-07-09T03:58:05;12.70;99.90
15357;DHT22;7778;48.792;9.260;2022-07-09T04:00:51;12.80;99.90
15357;DHT22;7778;48.792;9.260;2022-07-09T04:03:38;12.80;99.90
15357;DHT22;7778;48.792;9.260;2022-07-09T04:06:24;12.90;99.90
15357;DHT22;7778;48.792;9.260;2022-07-09T04:09:12;13.00;99.90
15357;DHT22;7778;48.792;9.260;2022-07-09T04:11:57;13.10;99.90
15357;DHT22;7778;48.792;9.260;2022-07-09T04:14:43;13.10;99.90
15357;DHT22;7778;48.792;9.260;2022-07-09T04:17:29;13.20;99.90
15357;DHT22;7778;48.792;9.260;2022-07-09T04:20:15;13.30;99.90
15357;DHT22;7778;48.792;9.260;2022-07-09T04:23:01;13.40;99.90
15357;DHT22;7778;48.792;9.260;2022-07-09T04:25:48;13.50;99.90
15357;DHT22;7778;48.792;9.260;2022-07-09T04:28:35;13.60;99.90
15357;DHT22;7778;48.792;9.260;2022-07-09T04:31:21;13.70;99.90
15357;DHT22;7778;48.792;9.260;2022-07-09T04:34:07;13.70;99.90
15357;DHT22;7778;48.792;9.260;2022-07-09T04:36:53;13.80;99.90
15357;DHT22;7778;48.792;9.260;2022-07-09T04:39:38;13.80;99.90
15357;DHT22;7778;48.792;9.260;2022-07-09T04:42:25;13.50;99.90
15357;DHT22;7778;48.792;9.260;2022-07-09T04:45:11;13.60;99.90
15357;DHT22;7778;48.792;9.260;2022-07-09T04:47:57;13.50;99.90
15357;DHT22;7778;48.792;9.260;2022-07-09T04:50:43;13.70;99.90
15357;DHT22;7778;48.792;9.260;2022-07-09T04:53:29;13.70;99.90
15357;DHT22;7778;48.792;9.260;2022-07-09T04:56:14;13.90;99.90
15357;DHT22;7778;48.792;9.260;2022-07-09T04:59:01;14.00;99.90
15357;DHT22;7778;48.792;9.260;2022-07-09T05:01:47;14.20;99.90
15357;DHT22;7778;48.792;9.260;2022-07-09T05:04:34;14.50;99.90
15357;DHT22;7778;48.792;9.260;2022-07-09T05:07:19;14.70;99.90
15357;DHT22;7778;48.792;9.260;2022-07-09T05:10:05;14.80;99.90
15357;DHT22;7778;48.792;9.260;2022-07-09T05:12:52;14.70;99.90
15357;DHT22;7778;48.792;9.260;2022-07-09T05:15:39;15.00;99.90
15357;DHT22;7778;48.792;9.260;2022-07-09T05:18:24;15.90;99.90
15357;DHT22;7778;48.792;9.260;2022-07-09T05:21:10;16.60;99.90
15357;DHT22;7778;48.792;9.260;2022-07-09T05:23:56;17.40;99.90
15357;DHT22;7778;48.792;9.260;2022-07-09T05:26:43;18.60;99.90
15357;DHT22;7778;48.792;9.260;2022-07-09T05:29:29;19.30;99.90
15357;DHT22;7778;48.792;9.260;2022-07-09T05:32:16;20.00;99.90
15357;DHT22;7778;48.792;9.260;2022-07-09T05:35:02;22.10;99.90
15357;DHT22;7778;48.792;9.260;2022-07-09T05:37:48;23.20;99.90
15357;DHT22;7778;48.792;9.260;2022-07-09T05:40:34;24.30;99.90
15357;DHT22;7778;48.792;9.260;2022-07-09T05:43:19;25.70;99.90
15357;DHT22;7778;48.792;9.260;2022-07-09T05:46:05;26.10;99.90
15357;DHT22;7778;48.792;9.260;2022-07-09T05:48:52;26.40;99.90
15357;DHT22;7778;48.792;9.260;2022-07-09T05:51:38;27.20;99.10
15357;DHT22;7778;48.792;9.260;2022-07-09T05:54:25;27.40;98.30
15357;DHT22;7778;48.792;9.260;2022-07-09T05:57:11;27.50;96.40
15357;DHT22;7778;48.792;9.260;2022-07-09T05:59:56;28.70;94.90
15357;DHT22;7778;48.792;9.260;2022-07-09T06:02:43;30.30;92.50
15357;DHT22;7778;48.792;9.260;2022-07-09T06:05:29;30.70;87.60
15357;DHT22;7778;48.792;9.260;2022-07-09T06:08:15;29.40;87.60
15357;DHT22;7778;48.792;9.260;2022-07-09T06:11:01;29.30;86.90
15357;DHT22;7778;48.792;9.260;2022-07-09T06:13:47;28.80;88.20
15357;DHT22;7778;48.792;9.260;2022-07-09T06:16:32;28.80;87.40
15357;DHT22;7778;48.792;9.260;2022-07-09T06:19:18;28.10;89.10
15357;DHT22;7778;48.792;9.260;2022-07-09T06:22:05;27.40;89.20
15357;DHT22;7778;48.792;9.260;2022-07-09T06:24:50;26.90;91.00
15357;DHT22;7778;48.792;9.260;2022-07-09T06:27:36;26.70;91.00
15357;DHT22;7778;48.792;9.260;2022-07-09T06:30:22;26.40;91.50
15357;DHT22;7778;48.792;9.260;2022-07-09T06:33:07;26.50;92.20
15357;DHT22;7778;48.792;9.260;2022-07-09T06:35:53;26.30;92.20
15357;DHT22;7778;48.792;9.260;2022-07-09T06:38:40;26.70;91.20
15357;DHT22;7778;48.792;9.260;2022-07-09T06:41:39;27.10;91.30
15357;DHT22;7778;48.792;9.260;2022-07-09T06:44:25;27.50;90.40
15357;DHT22;7778;48.792;9.260;2022-07-09T06:47:11;27.60;88.60
15357;DHT22;7778;48.792;9.260;2022-07-09T06:49:57;26.80;90.70
15357;DHT22;7778;48.792;9.260;2022-07-09T06:52:43;26.30;91.50
15357;DHT22;7778;48.792;9.260;2022-07-09T06:55:30;25.50;92.00
15357;DHT22;7778;48.792;9.260;2022-07-09T06:58:16;24.30;92.60
15357;DHT22;7778;48.792;9.260;2022-07-09T07:01:02;23.40;94.50
15357;DHT22;7778;48.792;9.260;2022-07-09T07:03:47;23.30;95.40
15357;DHT22;7778;48.792;9.260;2022-07-09T07:06:33;24.30;95.80
15357;DHT22;7778;48.792;9.260;2022-07-09T07:09:19;24.90;93.30
15357;DHT22;7778;48.792;9.260;2022-07-09T07:12:08;24.90;94.60
15357;DHT22;7778;48.792;9.260;2022-07-09T07:14:53;26.00;94.20
15357;DHT22;7778;48.792;9.260;2022-07-09T07:17:39;27.10;93.00
15357;DHT22;7778;48.792;9.260;2022-07-09T07:20:25;27.80;90.30
15357;DHT22;7778;48.792;9.260;2022-07-09T07:23:10;28.40;83.80
15357;DHT22;7778;48.792;9.260;2022-07-09T07:25:56;27.40;87.30
15357;DHT22;7778;48.792;9.260;2022-07-09T07:28:43;28.30;86.90
15357;DHT22;7778;48.792;9.260;2022-07-09T07:31:28;29.20;83.00
15357;DHT22;7778;48.792;9.260;2022-07-09T07:34:15;29.10;82.80
15357;DHT22;7778;48.792;9.260;2022-07-09T07:37:03;28.50;84.20
15357;DHT22;7778;48.792;9.260;2022-07-09T07:39:49;29.10;83.80
15357;DHT22;7778;48.792;9.260;2022-07-09T07:42:35;29.30;79.80
15357;DHT22;7778;48.792;9.260;2022-07-09T07:45:22;28.20;82.50
15357;DHT22;7778;48.792;9.260;2022-07-09T07:48:08;28.40;83.40
15357;DHT22;7778;48.792;9.260;2022-07-09T07:50:54;27.70;82.50
15357;DHT22;7778;48.792;9.260;2022-07-09T07:53:39;27.70;83.40
15357;DHT22;7778;48.792;9.260;2022-07-09T07:56:25;28.80;83.00
15357;DHT22;7778;48.792;9.260;2022-07-09T07:59:10;28.50;81.20
15357;DHT22;7778;48.792;9.260;2022-07-09T08:01:57;28.60;83.10
15357;DHT22;7778;48.792;9.260;2022-07-09T08:04:43;28.70;81.90
15357;DHT22;7778;48.792;9.260;2022-07-09T08:07:29;29.70;81.30
15357;DHT22;7778;48.792;9.260;2022-07-09T08:10:14;30.40;79.10
15357;DHT22;7778;48.792;9.260;2022-07-09T08:13:00;31.10;74.50
15357;DHT22;7778;48.792;9.260;2022-07-09T08:15:45;31.10;73.00
15357;DHT22;7778;48.792;9.260;2022-07-09T08:18:33;31.30;75.70
15357;DHT22;7778;48.792;9.260;2022-07-09T08:21:18;31.80;75.50
15357;DHT22;7778;48.792;9.260;2022-07-09T08:24:05;30.60;74.00
15357;DHT22;7778;48.792;9.260;2022-07-09T08:26:50;30.60;74.10
15357;DHT22;7778;48.792;9.260;2022-07-09T08:29:36;30.70;73.70
15357;DHT22;7778;48.792;9.260;2022-07-09T08:32:22;31.00;73.30
15357;DHT22;7778;48.792;9.260;2022-07-09T08:35:09;31.50;74.20
15357;DHT22;7778;48.792;9.260;2022-07-09T08:37:55;32.50;73.00
15357;DHT22;7778;48.792;9.260;2022-07-09T08:40:41;32.70;71.90
15357;DHT22;7778;48.792;9.260;2022-07-09T08:43:26;32.90;67.70
15357;DHT22;7778;48.792;9.260;2022-07-09T08:46:12;32.60;68.40
15357;DHT22;7778;48.792;9.260;2022-07-09T08:48:58;32.60;69.40
15357;DHT22;7778;48.792;9.260;2022-07-09T08:51:46;32.50;67.30
15357;DHT22;7778;48.792;9.260;2022-07-09T08:54:32;31.80;67.70
15357;DHT22;7778;48.792;9.260;2022-07-09T08:57:21;31.80;70.30
15357;DHT22;7778;48.792;9.260;2022-07-09T09:00:07;33.00;69.30
15357;DHT22;7778;48.792;9.260;2022-07-09T09:02:54;33.80;67.30
15357;DHT22;7778;48.792;9.260;2022-07-09T09:05:40;34.20;67.20
15357;DHT22;7778;48.792;9.260;2022-07-09T09:08:27;34.00;66.70
15357;DHT22;7778;48.792;9.260;2022-07-09T09:11:14;34.60;63.80
15357;DHT22;7778;48.792;9.260;2022-07-09T09:14:02;34.10;63.30
15357;DHT22;7778;48.792;9.260;2022-07-09T09:16:49;34.00;64.30
15357;DHT22;7778;48.792;9.260;2022-07-09T09:19:35;34.10;61.90
15357;DHT22;7778;48.792;9.260;2022-07-09T09:22:21;32.80;62.90
15357;DHT22;7778;48.792;9.260;2022-07-09T09:25:08;32.10;66.00
15357;DHT22;7778;48.792;9.260;2022-07-09T09:28:00;32.50;66.10
15357;DHT22;7778;48.792;9.260;2022-07-09T09:30:47;33.10;65.00
15357;DHT22;7778;48.792;9.260;2022-07-09T09:33:32;34.10;66.40
15357;DHT22;7778;48.792;9.260;2022-07-09T09:36:28;35.00;59.50
15357;DHT22;7778;48.792;9.260;2022-07-09T09:39:17;34.70;59.40
15357;DHT22;7778;48.792;9.260;2022-07-09T09:42:06;34.70;59.30
15357;DHT22;7778;48.792;9.260;2022-07-09T09:44:57;34.50;60.40
15357;DHT22;7778;48.792;9.260;2022-07-09T09:47:46;35.40;60.70
15357;DHT22;7778;48.792;9.260;2022-07-09T09:50:33;36.10;57.80
15357;DHT22;7778;48.792;9.260;2022-07-09T09:53:21;34.50;55.90
15357;DHT22;7778;48.792;9.260;2022-07-09T09:56:09;32.50;58.70
15357;DHT22;7778;48.792;9.260;2022-07-09T09:58:56;31.00;61.50
15357;DHT22;7778;48.792;9.260;2022-07-09T10:01:44;31.10;61.80
15357;DHT22;7778;48.792;9.260;2022-07-09T10:04:31;32.20;63.30
15357;DHT22;7778;48.792;9.260;2022-07-09T10:07:17;32.40;61.50
15357;DHT22;7778;48.792;9.260;2022-07-09T10:10:06;33.00;60.70
15357;DHT22;7778;48.792;9.260;2022-07-09T10:12:52;32.10;61.80
15357;DHT22;7778;48.792;9.260;2022-07-09T10:15:48;32.60;62.60
15357;DHT22;7778;48.792;9.260;2022-07-09T10:18:35;33.00;61.10
15357;DHT22;7778;48.792;9.260;2022-07-09T10:21:32;32.50;61.50
15357;DHT22;7778;48.792;9.260;2022-07-09T10:24:24;30.70;61.90
15357;DHT22;7778;48.792;9.260;2022-07-09T10:27:11;30.60;66.20
15357;DHT22;7778;48.792;9.260;2022-07-09T10:29:58;31.70;62.80
15357;DHT22;7778;48.792;9.260;2022-07-09T10:33:01;32.10;59.70
15357;DHT22;7778;48.792;9.260;2022-07-09T10:35:51;32.00;60.20
15357;DHT22;7778;48.792;9.260;2022-07-09T10:38:38;31.70;60.00
15357;DHT22;7778;48.792;9.260;2022-07-09T10:41:24;31.60;61.00
15357;DHT22;7778;48.792;9.260;2022-07-09T10:44:10;31.40;63.50
15357;DHT22;7778;48.792;9.260;2022-07-09T10:46:56;31.60;63.90
15357;DHT22;7778;48.792;9.260;2022-07-09T10:49:43;30.80;62.80
15357;DHT22;7778;48.792;9.260;2022-07-09T10:52:30;30.40;66.40
15357;DHT22;7778;48.792;9.260;2022-07-09T10:55:17;30.20;66.60
15357;DHT22;7778;48.792;9.260;2022-07-09T10:58:03;29.90;69.80
15357;DHT22;7778;48.792;9.260;2022-07-09T11:00:55;29.30;66.30
15357;DHT22;7778;48.792;9.260;2022-07-09T11:03:42;28.30;68.60
15357;DHT22;7778;48.792;9.260;2022-07-09T11:06:44;27.60;66.80
15357;DHT22;7778;48.792;9.260;2022-07-09T11:09:30;26.50;68.50
15357;DHT22;7778;48.792;9.260;2022-07-09T11:12:16;26.10;70.40
15357;DHT22;7778;48.792;9.260;2022-07-09T11:15:03;26.10;72.10
15357;DHT22;7778;48.792;9.260;2022-07-09T11:17:57;26.60;74.80
15357;DHT22;7778;48.792;9.260;2022-07-09T11:20:44;27.00;69.90
15357;DHT22;7778;48.792;9.260;2022-07-09T11:23:32;27.70;69.90
15357;DHT22;7778;48.792;9.260;2022-07-09T11:26:17;28.50;71.40
15357;DHT22;7778;48.792;9.260;2022-07-09T11:29:03;28.50;68.70
15357;DHT22;7778;48.792;9.260;2022-07-09T11:31:50;28.20;71.00
15357;DHT22;7778;48.792;9.260;2022-07-09T11:34:36;27.60;73.00
15357;DHT22;7778;48.792;9.260;2022-07-09T11:37:22;27.60;74.00
15357;DHT22;7778;48.792;9.260;2022-07-09T11:40:15;27.70;71.10
15357;DHT22;7778;48.792;9.260;2022-07-09T11:43:02;28.10;73.40
15357;DHT22;7778;48.792;9.260;2022-07-09T11:45:57;28.10;70.90
15357;DHT22;7778;48.792;9.260;2022-07-09T11:48:48;28.80;73.50
15357;DHT22;7778;48.792;9.260;2022-07-09T11:51:35;29.60;68.70
15357;DHT22;7778;48.792;9.260;2022-07-09T11:54:26;30.00;70.70
15357;DHT22;7778;48.792;9.260;2022-07-09T11:57:20;29.00;61.60
15357;DHT22;7778;48.792;9.260;2022-07-09T12:00:08;28.20;66.40
15357;DHT22;7778;48.792;9.260;2022-07-09T12:03:06;28.10;72.90
15357;DHT22;7778;48.792;9.260;2022-07-09T12:05:52;27.60;73.40
15357;DHT22;7778;48.792;9.260;2022-07-09T12:08:38;27.40;76.30
15357;DHT22;7778;48.792;9.260;2022-07-09T12:11:26;27.20;76.70
15357;DHT22;7778;48.792;9.260;2022-07-09T12:14:14;27.20;75.30
15357;DHT22;7778;48.792;9.260;2022-07-09T12:17:00;27.20;75.00
15357;DHT22;7778;48.792;9.260;2022-07-09T12:19:46;27.10;74.20
15357;DHT22;7778;48.792;9.260;2022-07-09T12:22:32;27.30;76.60
15357;DHT22;7778;48.792;9.260;2022-07-09T12:25:18;27.50;77.70
15357;DHT22;7778;48.792;9.260;2022-07-09T12:28:05;27.50;76.80
15357;DHT22;7778;48.792;9.260;2022-07-09T12:30:52;27.60;76.90
15357;DHT22;7778;48.792;9.260;2022-07-09T12:33:38;27.30;79.40
15357;DHT22;7778;48.792;9.260;2022-07-09T12:36:24;27.60;79.50
15357;DHT22;7778;48.792;9.260;2022-07-09T12:39:10;28.10;75.90
15357;DHT22;7778;48.792;9.260;2022-07-09T12:41:56;28.00;78.10
15357;DHT22;7778;48.792;9.260;2022-07-09T12:44:42;28.30;76.30
15357;DHT22;7778;48.792;9.260;2022-07-09T12:47:30;28.50;75.00
15357;DHT22;7778;48.792;9.260;2022-07-09T12:50:15;28.20;72.80
15357;DHT22;7778;48.792;9.260;2022-07-09T12:53:01;28.50;76.40
15357;DHT22;7778;48.792;9.260;2022-07-09T12:55:47;28.30;72.70
15357;DHT22;7778;48.792;9.260;2022-07-09T12:58:33;28.40;76.80
15357;DHT22;7778;48.792;9.260;2022-07-09T13:01:20;28.30;74.40
15357;DHT22;7778;48.792;9.260;2022-07-09T13:04:07;28.20;76.00
15357;DHT22;7778;48.792;9.260;2022-07-09T13:06:53;27.90;75.30
15357;DHT22;7778;48.792;9.260;2022-07-09T13:09:40;27.40;73.40
15357;DHT22;7778;48.792;9.260;2022-07-09T13:12:27;27.10;76.40
15357;DHT22;7778;48.792;9.260;2022-07-09T13:15:13;27.10;76.70
15357;DHT22;7778;48.792;9.260;2022-07-09T13:18:05;27.30;75.40
15357;DHT22;7778;48.792;9.260;2022-07-09T13:20:52;27.60;75.20
15357;DHT22;7778;48.792;9.260;2022-07-09T13:23:37;27.70;76.10
15357;DHT22;7778;48.792;9.260;2022-07-09T13:26:24;27.80;73.00
15357;DHT22;7778;48.792;9.260;2022-07-09T13:29:10;27.70;70.90
15357;DHT22;7778;48.792;9.260;2022-07-09T13:31:57;27.40;74.40
15357;DHT22;7778;48.792;9.260;2022-07-09T13:34:42;27.80;78.50
15357;DHT22;7778;48.792;9.260;2022-07-09T13:37:29;28.30;71.80
15357;DHT22;7778;48.792;9.260;2022-07-09T13:40:17;28.60;73.30
15357;DHT22;7778;48.792;9.260;2022-07-09T13:43:03;28.50;71.60
15357;DHT22;7778;48.792;9.260;2022-07-09T13:45:49;28.50;69.50
15357;DHT22;7778;48.792;9.260;2022-07-09T13:48:35;28.30;72.80
15357;DHT22;7778;48.792;9.260;2022-07-09T13:51:21;27.90;74.10
15357;DHT22;7778;48.792;9.260;2022-07-09T13:54:08;27.60;71.90
15357;DHT22;7778;48.792;9.260;2022-07-09T13:56:55;27.40;73.70
15357;DHT22;7778;48.792;9.260;2022-07-09T13:59:41;27.50;74.30
15357;DHT22;7778;48.792;9.260;2022-07-09T14:02:28;27.60;76.20
15357;DHT22;7778;48.792;9.260;2022-07-09T14:05:17;27.50;74.50
15357;DHT22;7778;48.792;9.260;2022-07-09T14:08:04;27.50;75.10
15357;DHT22;7778;48.792;9.260;2022-07-09T14:10:52;27.70;76.60
15357;DHT22;7778;48.792;9.260;2022-07-09T14:13:42;27.50;71.60
15357;DHT22;7778;48.792;9.260;2022-07-09T14:16:30;27.40;73.20
15357;DHT22;7778;48.792;9.260;2022-07-09T14:19:16;27.60;73.70
15357;DHT22;7778;48.792;9.260;2022-07-09T14:22:03;27.70;75.60
15357;DHT22;7778;48.792;9.260;2022-07-09T14:24:49;27.80;75.70
15357;DHT22;7778;48.792;9.260;2022-07-09T14:27:37;27.60;73.70
15357;DHT22;7778;48.792;9.260;2022-07-09T14:30:23;27.40;74.00
15357;DHT22;7778;48.792;9.260;2022-07-09T14:33:10;27.40;75.50
15357;DHT22;7778;48.792;9.260;2022-07-09T14:35:59;27.30;74.70
15357;DHT22;7778;48.792;9.260;2022-07-09T14:38:45;27.40;77.10
15357;DHT22;7778;48.792;9.260;2022-07-09T14:41:18;27.30;75.00
15357;DHT22;7778;48.792;9.260;2022-07-09T14:44:05;27.20;75.40
15357;DHT22;7778;48.792;9.260;2022-07-09T14:46:52;27.10;75.10
15357;DHT22;7778;48.792;9.260;2022-07-09T14:49:42;27.10;76.90
15357;DHT22;7778;48.792;9.260;2022-07-09T14:52:30;27.00;75.20
15357;DHT22;7778;48.792;9.260;2022-07-09T14:55:17;27.00;76.90
15357;DHT22;7778;48.792;9.260;2022-07-09T14:58:04;27.10;74.20
15357;DHT22;7778;48.792;9.260;2022-07-09T15:00:54;27.30;77.80
15357;DHT22;7778;48.792;9.260;2022-07-09T15:03:41;27.40;74.90
15357;DHT22;7778;48.792;9.260;2022-07-09T15:06:28;27.40;75.00
15357;DHT22;7778;48.792;9.260;2022-07-09T15:09:14;27.30;76.90
15357;DHT22;7778;48.792;9.260;2022-07-09T15:12:01;27.10;75.00
15357;DHT22;7778;48.792;9.260;2022-07-09T15:14:50;27.00;75.10
15357;DHT22;7778;48.792;9.260;2022-07-09T15:17:38;27.10;77.70
15357;DHT22;7778;48.792;9.260;2022-07-09T15:20:25;27.40;75.40
15357;DHT22;7778;48.792;9.260;2022-07-09T15:23:13;27.40;76.30
15357;DHT22;7778;48.792;9.260;2022-07-09T15:26:00;27.40;76.40
15357;DHT22;7778;48.792;9.260;2022-07-09T15:28:48;27.20;78.50
15357;DHT22;7778;48.792;9.260;2022-07-09T15:31:36;27.10;78.60
15357;DHT22;7778;48.792;9.260;2022-07-09T15:34:26;27.10;76.00
15357;DHT22;7778;48.792;9.260;2022-07-09T15:37:20;27.00;75.30
15357;DHT22;7778;48.792;9.260;2022-07-09T15:40:10;27.00;75.90
15357;DHT22;7778;48.792;9.260;2022-07-09T15:42:58;27.10;75.40
15357;DHT22;7778;48.792;9.260;2022-07-09T15:45:45;26.90;75.10
15357;DHT22;7778;48.792;9.260;2022-07-09T15:48:31;26.80;76.80
15357;DHT22;7778;48.792;9.260;2022-07-09T15:51:18;26.80;77.20
15357;DHT22;7778;48.792;9.260;2022-07-09T15:54:05;26.90;75.60
15357;DHT22;7778;48.792;9.260;2022-07-09T15:56:51;26.80;77.40
15357;DHT22;7778;48.792;9.260;2022-07-09T15:59:37;26.70;76.80
15357;DHT22;7778;48.792;9.260;2022-07-09T16:02:24;26.60;78.10
15357;DHT22;7778;48.792;9.260;2022-07-09T16:05:11;26.50;79.00
15357;DHT22;7778;48.792;9.260;2022-07-09T16:07:58;26.20;76.80
15357;DHT22;7778;48.792;9.260;2022-07-09T16:10:44;26.10;78.30
15357;DHT22;7778;48.792;9.260;2022-07-09T16:13:31;26.00;79.20
15357;DHT22;7778;48.792;9.260;2022-07-09T16:16:16;26.20;80.00
15357;DHT22;7778;48.792;9.260;2022-07-09T16:19:07;26.10;80.10
15357;DHT22;7778;48.792;9.260;2022-07-09T16:21:53;26.20;81.00
15357;DHT22;7778;48.792;9.260;2022-07-09T16:24:42;26.10;81.30
15357;DHT22;7778;48.792;9.260;2022-07-09T16:27:28;25.90;80.80
15357;DHT22;7778;48.792;9.260;2022-07-09T16:30:15;26.00;82.20
15357;DHT22;7778;48.792;9.260;2022-07-09T16:33:02;25.90;82.20
15357;DHT22;7778;48.792;9.260;2022-07-09T16:35:49;25.70;83.40
15357;DHT22;7778;48.792;9.260;2022-07-09T16:38:35;25.60;83.60
15357;DHT22;7778;48.792;9.260;2022-07-09T16:41:23;25.70;84.10
15357;DHT22;7778;48.792;9.260;2022-07-09T16:44:09;25.80;86.00
15357;DHT22;7778;48.792;9.260;2022-07-09T16:46:55;25.80;84.70
15357;DHT22;7778;48.792;9.260;2022-07-09T16:49:40;25.80;85.80
15357;DHT22;7778;48.792;9.260;2022-07-09T16:52:26;25.70;85.20
15357;DHT22;7778;48.792;9.260;2022-07-09T16:55:12;25.50;85.80
15357;DHT22;7778;48.792;9.260;2022-07-09T16:58:01;25.40;85.20
15357;DHT22;7778;48.792;9.260;2022-07-09T17:00:46;25.30;84.90
15357;DHT22;7778;48.792;9.260;2022-07-09T17:03:32;25.20;86.70
15357;DHT22;7778;48.792;9.260;2022-07-09T17:06:17;25.30;86.20
15357;DHT22;7778;48.792;9.260;2022-07-09T17:09:03;25.30;85.50
15357;DHT22;7778;48.792;9.260;2022-07-09T17:11:49;25.20;85.20
15357;DHT22;7778;48.792;9.260;2022-07-09T17:14:36;25.20;86.10
15357;DHT22;7778;48.792;9.260;2022-07-09T17:17:22;25.20;87.60
15357;DHT22;7778;48.792;9.260;2022-07-09T17:20:08;25.40;88.30
15357;DHT22;7778;48.792;9.260;2022-07-09T17:22:54;25.40;87.10
15357;DHT22;7778;48.792;9.260;2022-07-09T17:25:40;25.30;87.50
15357;DHT22;7778;48.792;9.260;2022-07-09T17:28:26;25.20;87.80
15357;DHT22;7778;48.792;9.260;2022-07-09T17:31:13;25.10;89.00
15357;DHT22;7778;48.792;9.260;2022-07-09T17:34:01;25.00;88.80
15357;DHT22;7778;48.792;9.260;2022-07-09T17:36:47;24.90;89.80
15357;DHT22;7778;48.792;9.260;2022-07-09T17:39:32;24.90;90.30
15357;DHT22;7778;48.792;9.260;2022-07-09T17:42:18;24.90;90.90
15357;DHT22;7778;48.792;9.260;2022-07-09T17:45:04;24.90;89.80
15357;DHT22;7778;48.792;9.260;2022-07-09T17:47:53;24.90;90.30
15357;DHT22;7778;48.792;9.260;2022-07-09T17:50:39;25.00;90.20